sensor_id;sensor_type;location;lat;lon;timestamp;P1;durP1;ratioP1;P2;durP2;ratioP2
29280;SDS011;25048;49.590;11.026;2023-07-16T00:01:09;9.58;;;8.53;;
29280;SDS011;25048;49.590;11.026;2023-07-16T00:03:37;10.82;;;7.95;;
29280;SDS011;25048;49.590;11.026;2023-07-16T00:06:04;13.08;;;8.20;;
29280;SDS011;25048;49.590;11.026;2023-07-16T00:08:32;13.58;;;8.70;;
29280;SDS011;25048;49.590;11.026;2023-07-16T00:10:59;14.87;;;8.38;;
29280;SDS011;25048;49.590;11.026;2023-07-16T00:13:27;15.15;;;8.38;;
29280;SDS011;25048;49.590;11.026;2023-07-16T00:15:54;13.00;;;8.25;;
29280;SDS011;25048;49.590;11.026;2023-07-16T00:18:21;10.55;;;8.33;;
29280;SDS011;25048;49.590;11.026;2023-07-16T00:20:49;10.98;;;8.50;;
29280;SDS011;25048;49.590;11.026;2023-07-16T00:23:17;17.50;;;9.30;;
29280;SDS011;25048;49.590;11.026;2023-07-16T00:25:44;16.82;;;9.23;;
29280;SDS011;25048;49.590;11.026;2023-07-16T00:28:12;16.60;;;9.55;;
29280;SDS011;25048;49.590;11.026;2023-07-16T00:30:40;13.95;;;9.80;;
29280;SDS011;25048;49.590;11.026;2023-07-16T00:33:07;14.78;;;9.85;;
29280;SDS011;25048;49.590;11.026;2023-07-16T00:35:35;14.05;;;10.32;;
29280;SDS011;25048;49.590;11.026;2023-07-16T00:38:02;14.98;;;10.45;;
29280;SDS011;25048;49.590;11.026;2023-07-16T00:40:30;16.67;;;10.70;;
29280;SDS011;25048;49.590;11.026;2023-07-16T00:42:57;16.45;;;10.10;;
29280;SDS011;25048;49.590;11.026;2023-07-16T00:45:25;15.85;;;10.18;;
29280;SDS011;25048;49.590;11.026;2023-07-16T00:47:53;14.78;;;10.63;;
29280;SDS011;25048;49.590;11.026;2023-07-16T00:50:21;13.28;;;10.25;;
29280;SDS011;25048;49.590;11.026;2023-07-16T00:52:49;14.50;;;10.38;;
29280;SDS011;25048;49.590;11.026;2023-07-16T00:55:16;15.72;;;10.95;;
29280;SDS011;25048;49.590;11.026;2023-07-16T00:57:44;19.32;;;11.00;;
29280;SDS011;25048;49.590;11.026;2023-07-16T01:00:13;15.43;;;11.00;;
29280;SDS011;25048;49.590;11.026;2023-07-16T01:02:40;13.48;;;9.48;;
29280;SDS011;25048;49.590;11.026;2023-07-16T01:05:08;13.68;;;10.15;;
29280;SDS011;25048;49.590;11.026;2023-07-16T01:07:35;14.98;;;10.25;;
29280;SDS011;25048;49.590;11.026;2023-07-16T01:10:06;14.33;;;10.20;;
29280;SDS011;25048;49.590;11.026;2023-07-16T01:12:34;14.68;;;7.87;;
29280;SDS011;25048;49.590;11.026;2023-07-16T01:15:02;9.13;;;6.92;;
29280;SDS011;25048;49.590;11.026;2023-07-16T01:17:30;9.90;;;5.75;;
29280;SDS011;25048;49.590;11.026;2023-07-16T01:19:58;10.98;;;6.25;;
29280;SDS011;25048;49.590;11.026;2023-07-16T01:25:01;9.10;;;4.90;;
29280;SDS011;25048;49.590;11.026;2023-07-16T01:30:33;6.97;;;4.37;;
29280;SDS011;25048;49.590;11.026;2023-07-16T01:33:04;5.47;;;4.10;;
29280;SDS011;25048;49.590;11.026;2023-07-16T01:35:33;4.90;;;3.85;;
29280;SDS011;25048;49.590;11.026;2023-07-16T01:38:01;6.67;;;4.28;;
29280;SDS011;25048;49.590;11.026;2023-07-16T01:40:29;5.20;;;4.00;;
29280;SDS011;25048;49.590;11.026;2023-07-16T01:42:57;7.05;;;4.03;;
29280;SDS011;25048;49.590;11.026;2023-07-16T01:45:25;8.08;;;3.75;;
29280;SDS011;25048;49.590;11.026;2023-07-16T01:50:42;5.40;;;3.80;;
29280;SDS011;25048;49.590;11.026;2023-07-16T01:53:10;8.78;;;4.25;;
29280;SDS011;25048;49.590;11.026;2023-07-16T01:55:38;6.55;;;4.03;;
29280;SDS011;25048;49.590;11.026;2023-07-16T01:58:05;5.55;;;3.83;;
29280;SDS011;25048;49.590;11.026;2023-07-16T02:00:33;7.30;;;4.30;;
29280;SDS011;25048;49.590;11.026;2023-07-16T02:03:01;7.08;;;4.45;;
29280;SDS011;25048;49.590;11.026;2023-07-16T02:05:29;7.70;;;4.50;;
29280;SDS011;25048;49.590;11.026;2023-07-16T02:07:56;6.80;;;3.95;;
29280;SDS011;25048;49.590;11.026;2023-07-16T02:10:24;4.65;;;3.80;;
29280;SDS011;25048;49.590;11.026;2023-07-16T02:12:51;4.35;;;3.45;;
29280;SDS011;25048;49.590;11.026;2023-07-16T02:15:19;9.05;;;4.42;;
29280;SDS011;25048;49.590;11.026;2023-07-16T02:17:47;5.53;;;3.47;;
29280;SDS011;25048;49.590;11.026;2023-07-16T02:20:14;6.00;;;4.25;;
29280;SDS011;25048;49.590;11.026;2023-07-16T02:22:42;7.03;;;4.40;;
29280;SDS011;25048;49.590;11.026;2023-07-16T02:25:09;5.05;;;3.72;;
29280;SDS011;25048;49.590;11.026;2023-07-16T02:27:37;5.03;;;3.80;;
29280;SDS011;25048;49.590;11.026;2023-07-16T02:30:05;5.45;;;4.83;;
29280;SDS011;25048;49.590;11.026;2023-07-16T02:32:33;4.75;;;4.08;;
29280;SDS011;25048;49.590;11.026;2023-07-16T02:35:01;4.97;;;4.22;;
29280;SDS011;25048;49.590;11.026;2023-07-16T02:37:29;6.75;;;4.55;;
29280;SDS011;25048;49.590;11.026;2023-07-16T02:39:56;6.12;;;3.67;;
29280;SDS011;25048;49.590;11.026;2023-07-16T02:42:24;6.30;;;4.08;;
29280;SDS011;25048;49.590;11.026;2023-07-16T02:44:52;5.95;;;4.17;;
29280;SDS011;25048;49.590;11.026;2023-07-16T02:47:19;6.85;;;4.65;;
29280;SDS011;25048;49.590;11.026;2023-07-16T02:49:50;6.80;;;4.65;;
29280;SDS011;25048;49.590;11.026;2023-07-16T02:52:19;11.25;;;4.60;;
29280;SDS011;25048;49.590;11.026;2023-07-16T02:54:46;6.70;;;3.75;;
29280;SDS011;25048;49.590;11.026;2023-07-16T02:57:14;4.70;;;4.05;;
29280;SDS011;25048;49.590;11.026;2023-07-16T02:59:41;7.20;;;3.98;;
29280;SDS011;25048;49.590;11.026;2023-07-16T03:02:09;5.65;;;3.85;;
29280;SDS011;25048;49.590;11.026;2023-07-16T03:04:36;8.15;;;4.30;;
29280;SDS011;25048;49.590;11.026;2023-07-16T03:07:04;10.82;;;4.25;;
29280;SDS011;25048;49.590;11.026;2023-07-16T03:09:32;3.90;;;3.52;;
29280;SDS011;25048;49.590;11.026;2023-07-16T03:11:59;4.17;;;3.77;;
29280;SDS011;25048;49.590;11.026;2023-07-16T03:14:27;4.75;;;3.85;;
29280;SDS011;25048;49.590;11.026;2023-07-16T03:16:54;5.28;;;3.77;;
29280;SDS011;25048;49.590;11.026;2023-07-16T03:19:22;5.53;;;3.60;;
29280;SDS011;25048;49.590;11.026;2023-07-16T03:21:49;6.97;;;3.83;;
29280;SDS011;25048;49.590;11.026;2023-07-16T03:24:17;6.42;;;3.42;;
29280;SDS011;25048;49.590;11.026;2023-07-16T03:26:44;6.05;;;3.80;;
29280;SDS011;25048;49.590;11.026;2023-07-16T03:29:12;5.72;;;3.60;;
29280;SDS011;25048;49.590;11.026;2023-07-16T03:31:39;10.53;;;3.55;;
29280;SDS011;25048;49.590;11.026;2023-07-16T03:34:07;7.90;;;3.50;;
29280;SDS011;25048;49.590;11.026;2023-07-16T03:36:34;5.25;;;3.10;;
29280;SDS011;25048;49.590;11.026;2023-07-16T03:39:02;4.60;;;3.35;;
29280;SDS011;25048;49.590;11.026;2023-07-16T03:41:29;6.40;;;3.20;;
29280;SDS011;25048;49.590;11.026;2023-07-16T03:43:57;6.10;;;3.33;;
29280;SDS011;25048;49.590;11.026;2023-07-16T03:46:24;4.62;;;3.22;;
29280;SDS011;25048;49.590;11.026;2023-07-16T03:48:53;6.70;;;3.30;;
29280;SDS011;25048;49.590;11.026;2023-07-16T03:51:20;6.70;;;2.90;;
29280;SDS011;25048;49.590;11.026;2023-07-16T03:53:48;5.72;;;3.30;;
29280;SDS011;25048;49.590;11.026;2023-07-16T03:56:15;3.25;;;2.77;;
29280;SDS011;25048;49.590;11.026;2023-07-16T03:58:43;4.20;;;2.95;;
29280;SDS011;25048;49.590;11.026;2023-07-16T04:01:10;3.05;;;2.42;;
29280;SDS011;25048;49.590;11.026;2023-07-16T04:03:38;3.08;;;2.05;;
29280;SDS011;25048;49.590;11.026;2023-07-16T04:06:05;3.05;;;2.17;;
29280;SDS011;25048;49.590;11.026;2023-07-16T04:08:36;3.87;;;2.00;;
29280;SDS011;25048;49.590;11.026;2023-07-16T04:11:04;2.15;;;1.90;;
29280;SDS011;25048;49.590;11.026;2023-07-16T04:13:32;3.45;;;1.87;;
29280;SDS011;25048;49.590;11.026;2023-07-16T04:16:00;4.12;;;1.72;;
29280;SDS011;25048;49.590;11.026;2023-07-16T04:18:27;2.75;;;1.98;;
29280;SDS011;25048;49.590;11.026;2023-07-16T04:20:55;5.12;;;1.67;;
29280;SDS011;25048;49.590;11.026;2023-07-16T04:23:22;2.60;;;1.92;;
29280;SDS011;25048;49.590;11.026;2023-07-16T04:25:53;2.25;;;1.90;;
29280;SDS011;25048;49.590;11.026;2023-07-16T04:28:22;2.20;;;2.00;;
29280;SDS011;25048;49.590;11.026;2023-07-16T04:30:49;2.80;;;1.70;;
29280;SDS011;25048;49.590;11.026;2023-07-16T04:33:17;2.72;;;2.08;;
29280;SDS011;25048;49.590;11.026;2023-07-16T04:35:45;2.50;;;2.00;;
29280;SDS011;25048;49.590;11.026;2023-07-16T04:38:12;1.80;;;1.70;;
29280;SDS011;25048;49.590;11.026;2023-07-16T04:40:41;4.97;;;2.20;;
29280;SDS011;25048;49.590;11.026;2023-07-16T04:43:09;2.35;;;1.92;;
29280;SDS011;25048;49.590;11.026;2023-07-16T04:45:37;5.55;;;1.80;;
29280;SDS011;25048;49.590;11.026;2023-07-16T04:48:05;2.90;;;1.95;;
29280;SDS011;25048;49.590;11.026;2023-07-16T04:50:33;3.55;;;2.00;;
29280;SDS011;25048;49.590;11.026;2023-07-16T04:53:00;6.17;;;2.10;;
29280;SDS011;25048;49.590;11.026;2023-07-16T04:55:28;4.12;;;1.87;;
29280;SDS011;25048;49.590;11.026;2023-07-16T04:57:55;4.95;;;2.00;;
29280;SDS011;25048;49.590;11.026;2023-07-16T05:00:23;3.70;;;1.80;;
29280;SDS011;25048;49.590;11.026;2023-07-16T05:02:50;4.90;;;1.72;;
29280;SDS011;25048;49.590;11.026;2023-07-16T05:05:18;3.85;;;1.92;;
29280;SDS011;25048;49.590;11.026;2023-07-16T05:07:45;4.08;;;2.08;;
29280;SDS011;25048;49.590;11.026;2023-07-16T05:10:13;2.92;;;2.10;;
29280;SDS011;25048;49.590;11.026;2023-07-16T05:12:40;2.85;;;1.77;;
29280;SDS011;25048;49.590;11.026;2023-07-16T05:15:08;3.50;;;1.92;;
29280;SDS011;25048;49.590;11.026;2023-07-16T05:17:36;3.98;;;1.90;;
29280;SDS011;25048;49.590;11.026;2023-07-16T05:20:04;3.33;;;2.00;;
29280;SDS011;25048;49.590;11.026;2023-07-16T05:22:32;7.72;;;2.15;;
29280;SDS011;25048;49.590;11.026;2023-07-16T05:25:00;4.95;;;2.22;;
29280;SDS011;25048;49.590;11.026;2023-07-16T05:27:27;5.28;;;3.00;;
29280;SDS011;25048;49.590;11.026;2023-07-16T05:29:55;7.08;;;2.27;;
29280;SDS011;25048;49.590;11.026;2023-07-16T05:32:22;3.80;;;1.70;;
29280;SDS011;25048;49.590;11.026;2023-07-16T05:34:50;9.25;;;1.87;;
29280;SDS011;25048;49.590;11.026;2023-07-16T05:37:17;3.27;;;2.17;;
29280;SDS011;25048;49.590;11.026;2023-07-16T05:39:45;4.95;;;1.82;;
29280;SDS011;25048;49.590;11.026;2023-07-16T05:42:12;10.82;;;2.50;;
29280;SDS011;25048;49.590;11.026;2023-07-16T05:44:40;5.45;;;1.95;;
29280;SDS011;25048;49.590;11.026;2023-07-16T05:47:08;4.20;;;2.08;;
29280;SDS011;25048;49.590;11.026;2023-07-16T05:49:36;3.30;;;1.85;;
29280;SDS011;25048;49.590;11.026;2023-07-16T05:52:03;9.45;;;1.82;;
29280;SDS011;25048;49.590;11.026;2023-07-16T05:54:31;6.05;;;2.00;;
29280;SDS011;25048;49.590;11.026;2023-07-16T05:56:59;5.35;;;2.83;;
29280;SDS011;25048;49.590;11.026;2023-07-16T05:59:26;2.72;;;1.70;;
29280;SDS011;25048;49.590;11.026;2023-07-16T06:01:54;4.05;;;1.65;;
29280;SDS011;25048;49.590;11.026;2023-07-16T06:04:23;3.90;;;1.95;;
29280;SDS011;25048;49.590;11.026;2023-07-16T06:06:50;4.33;;;2.20;;
29280;SDS011;25048;49.590;11.026;2023-07-16T06:09:18;8.63;;;3.02;;
29280;SDS011;25048;49.590;11.026;2023-07-16T06:11:46;4.40;;;2.00;;
29280;SDS011;25048;49.590;11.026;2023-07-16T06:14:14;3.80;;;2.20;;
29280;SDS011;25048;49.590;11.026;2023-07-16T06:16:41;2.70;;;1.65;;
29280;SDS011;25048;49.590;11.026;2023-07-16T06:19:09;3.98;;;2.17;;
29280;SDS011;25048;49.590;11.026;2023-07-16T06:21:37;7.37;;;2.55;;
29280;SDS011;25048;49.590;11.026;2023-07-16T06:24:04;3.22;;;1.72;;
29280;SDS011;25048;49.590;11.026;2023-07-16T06:26:32;4.65;;;1.80;;
29280;SDS011;25048;49.590;11.026;2023-07-16T06:28:59;3.75;;;1.75;;
29280;SDS011;25048;49.590;11.026;2023-07-16T06:31:27;3.90;;;1.62;;
29280;SDS011;25048;49.590;11.026;2023-07-16T06:33:54;4.08;;;2.42;;
29280;SDS011;25048;49.590;11.026;2023-07-16T06:36:22;6.22;;;2.10;;
29280;SDS011;25048;49.590;11.026;2023-07-16T06:38:49;4.17;;;1.90;;
29280;SDS011;25048;49.590;11.026;2023-07-16T06:41:17;3.98;;;2.05;;
29280;SDS011;25048;49.590;11.026;2023-07-16T06:43:45;10.08;;;2.35;;
29280;SDS011;25048;49.590;11.026;2023-07-16T06:46:12;4.72;;;2.30;;
29280;SDS011;25048;49.590;11.026;2023-07-16T06:48:40;5.95;;;2.00;;
29280;SDS011;25048;49.590;11.026;2023-07-16T06:51:07;9.68;;;2.10;;
29280;SDS011;25048;49.590;11.026;2023-07-16T06:53:35;6.40;;;2.20;;
29280;SDS011;25048;49.590;11.026;2023-07-16T06:56:02;6.17;;;2.00;;
29280;SDS011;25048;49.590;11.026;2023-07-16T06:58:35;2.08;;;1.52;;
29280;SDS011;25048;49.590;11.026;2023-07-16T07:00:59;5.53;;;1.90;;
29280;SDS011;25048;49.590;11.026;2023-07-16T07:03:27;5.03;;;1.80;;
29280;SDS011;25048;49.590;11.026;2023-07-16T07:05:55;4.28;;;2.10;;
29280;SDS011;25048;49.590;11.026;2023-07-16T07:08:22;4.17;;;2.20;;
29280;SDS011;25048;49.590;11.026;2023-07-16T07:10:50;5.35;;;2.00;;
29280;SDS011;25048;49.590;11.026;2023-07-16T07:13:17;4.50;;;1.80;;
29280;SDS011;25048;49.590;11.026;2023-07-16T07:15:45;4.45;;;1.95;;
29280;SDS011;25048;49.590;11.026;2023-07-16T07:18:12;7.05;;;1.92;;
29280;SDS011;25048;49.590;11.026;2023-07-16T07:20:40;2.77;;;1.85;;
29280;SDS011;25048;49.590;11.026;2023-07-16T07:23:07;5.42;;;2.30;;
29280;SDS011;25048;49.590;11.026;2023-07-16T07:25:35;3.45;;;1.70;;
29280;SDS011;25048;49.590;11.026;2023-07-16T07:28:02;4.50;;;2.42;;
29280;SDS011;25048;49.590;11.026;2023-07-16T07:30:30;3.95;;;2.00;;
29280;SDS011;25048;49.590;11.026;2023-07-16T07:32:58;4.58;;;2.00;;
29280;SDS011;25048;49.590;11.026;2023-07-16T07:35:25;13.13;;;2.20;;
29280;SDS011;25048;49.590;11.026;2023-07-16T07:37:53;6.62;;;2.40;;
29280;SDS011;25048;49.590;11.026;2023-07-16T07:40:20;7.80;;;2.30;;
29280;SDS011;25048;49.590;11.026;2023-07-16T07:42:48;7.40;;;2.00;;
29280;SDS011;25048;49.590;11.026;2023-07-16T07:45:15;4.22;;;1.82;;
29280;SDS011;25048;49.590;11.026;2023-07-16T07:47:43;6.08;;;1.98;;
29280;SDS011;25048;49.590;11.026;2023-07-16T07:50:10;3.85;;;1.95;;
29280;SDS011;25048;49.590;11.026;2023-07-16T07:52:38;6.08;;;2.30;;
29280;SDS011;25048;49.590;11.026;2023-07-16T07:55:05;5.30;;;1.87;;
29280;SDS011;25048;49.590;11.026;2023-07-16T07:57:33;3.40;;;1.75;;
29280;SDS011;25048;49.590;11.026;2023-07-16T08:00:01;3.60;;;1.80;;
29280;SDS011;25048;49.590;11.026;2023-07-16T08:02:28;2.87;;;1.50;;
29280;SDS011;25048;49.590;11.026;2023-07-16T08:04:56;5.35;;;1.77;;
29280;SDS011;25048;49.590;11.026;2023-07-16T08:07:23;5.47;;;2.05;;
29280;SDS011;25048;49.590;11.026;2023-07-16T08:09:52;6.25;;;2.10;;
29280;SDS011;25048;49.590;11.026;2023-07-16T08:12:19;5.00;;;1.75;;
29280;SDS011;25048;49.590;11.026;2023-07-16T08:14:47;6.35;;;1.75;;
29280;SDS011;25048;49.590;11.026;2023-07-16T08:17:15;6.62;;;1.60;;
29280;SDS011;25048;49.590;11.026;2023-07-16T08:19:42;5.53;;;2.02;;
29280;SDS011;25048;49.590;11.026;2023-07-16T08:22:10;10.32;;;2.37;;
29280;SDS011;25048;49.590;11.026;2023-07-16T08:24:38;7.22;;;2.25;;
29280;SDS011;25048;49.590;11.026;2023-07-16T08:27:05;5.60;;;1.92;;
29280;SDS011;25048;49.590;11.026;2023-07-16T08:29:35;8.08;;;1.90;;
29280;SDS011;25048;49.590;11.026;2023-07-16T08:32:03;7.12;;;2.00;;
29280;SDS011;25048;49.590;11.026;2023-07-16T08:34:30;5.67;;;2.08;;
29280;SDS011;25048;49.590;11.026;2023-07-16T08:36:58;4.97;;;1.77;;
29280;SDS011;25048;49.590;11.026;2023-07-16T08:39:25;5.22;;;2.12;;
29280;SDS011;25048;49.590;11.026;2023-07-16T08:41:53;8.28;;;1.95;;
29280;SDS011;25048;49.590;11.026;2023-07-16T08:44:21;4.47;;;1.90;;
29280;SDS011;25048;49.590;11.026;2023-07-16T08:46:49;6.75;;;2.17;;
29280;SDS011;25048;49.590;11.026;2023-07-16T08:49:18;4.50;;;1.80;;
29280;SDS011;25048;49.590;11.026;2023-07-16T08:51:49;8.75;;;2.33;;
29280;SDS011;25048;49.590;11.026;2023-07-16T08:54:16;7.67;;;2.20;;
29280;SDS011;25048;49.590;11.026;2023-07-16T08:56:45;9.78;;;2.08;;
29280;SDS011;25048;49.590;11.026;2023-07-16T08:59:15;9.65;;;1.77;;
29280;SDS011;25048;49.590;11.026;2023-07-16T09:01:42;4.45;;;1.90;;
29280;SDS011;25048;49.590;11.026;2023-07-16T09:04:11;8.13;;;1.85;;
29280;SDS011;25048;49.590;11.026;2023-07-16T09:06:39;6.42;;;1.82;;
29280;SDS011;25048;49.590;11.026;2023-07-16T09:09:06;3.65;;;2.02;;
29280;SDS011;25048;49.590;11.026;2023-07-16T09:11:34;5.47;;;1.98;;
29280;SDS011;25048;49.590;11.026;2023-07-16T09:14:01;5.47;;;1.77;;
29280;SDS011;25048;49.590;11.026;2023-07-16T09:16:32;5.03;;;1.80;;
29280;SDS011;25048;49.590;11.026;2023-07-16T09:19:09;6.22;;;2.17;;
29280;SDS011;25048;49.590;11.026;2023-07-16T09:21:40;4.33;;;1.95;;
29280;SDS011;25048;49.590;11.026;2023-07-16T09:24:07;6.55;;;1.90;;
29280;SDS011;25048;49.590;11.026;2023-07-16T09:26:38;2.20;;;1.42;;
29280;SDS011;25048;49.590;11.026;2023-07-16T09:29:08;5.35;;;1.85;;
29280;SDS011;25048;49.590;11.026;2023-07-16T09:31:35;3.50;;;1.90;;
29280;SDS011;25048;49.590;11.026;2023-07-16T09:34:03;4.33;;;1.90;;
29280;SDS011;25048;49.590;11.026;2023-07-16T09:36:30;5.65;;;2.40;;
29280;SDS011;25048;49.590;11.026;2023-07-16T09:38:58;4.05;;;2.52;;
29280;SDS011;25048;49.590;11.026;2023-07-16T09:41:26;3.77;;;1.85;;
29280;SDS011;25048;49.590;11.026;2023-07-16T09:43:55;4.50;;;2.00;;
29280;SDS011;25048;49.590;11.026;2023-07-16T09:46:23;5.97;;;1.82;;
29280;SDS011;25048;49.590;11.026;2023-07-16T09:48:53;2.95;;;1.70;;
29280;SDS011;25048;49.590;11.026;2023-07-16T09:51:19;12.03;;;2.20;;
29280;SDS011;25048;49.590;11.026;2023-07-16T09:53:47;9.45;;;2.15;;
29280;SDS011;25048;49.590;11.026;2023-07-16T09:56:16;5.58;;;1.70;;
29280;SDS011;25048;49.590;11.026;2023-07-16T09:58:47;4.42;;;1.90;;
29280;SDS011;25048;49.590;11.026;2023-07-16T10:01:14;5.45;;;2.00;;
29280;SDS011;25048;49.590;11.026;2023-07-16T10:03:49;4.47;;;2.10;;
29280;SDS011;25048;49.590;11.026;2023-07-16T10:06:17;4.35;;;1.75;;
29280;SDS011;25048;49.590;11.026;2023-07-16T10:08:48;6.08;;;2.08;;
29280;SDS011;25048;49.590;11.026;2023-07-16T10:11:17;3.70;;;1.80;;
29280;SDS011;25048;49.590;11.026;2023-07-16T10:13:49;6.17;;;1.98;;
29280;SDS011;25048;49.590;11.026;2023-07-16T10:16:20;3.72;;;1.60;;
29280;SDS011;25048;49.590;11.026;2023-07-16T10:18:51;6.05;;;2.22;;
29280;SDS011;25048;49.590;11.026;2023-07-16T10:21:24;6.15;;;1.80;;
29280;SDS011;25048;49.590;11.026;2023-07-16T10:23:58;3.37;;;1.52;;
29280;SDS011;25048;49.590;11.026;2023-07-16T10:26:26;2.08;;;1.60;;
29280;SDS011;25048;49.590;11.026;2023-07-16T10:28:55;4.97;;;1.75;;
29280;SDS011;25048;49.590;11.026;2023-07-16T10:31:23;6.05;;;2.12;;
29280;SDS011;25048;49.590;11.026;2023-07-16T10:34:02;5.67;;;2.02;;
29280;SDS011;25048;49.590;11.026;2023-07-16T10:36:40;3.75;;;1.77;;
29280;SDS011;25048;49.590;11.026;2023-07-16T10:39:08;4.97;;;2.10;;
29280;SDS011;25048;49.590;11.026;2023-07-16T10:41:35;4.55;;;2.02;;
29280;SDS011;25048;49.590;11.026;2023-07-16T10:44:03;5.03;;;1.65;;
29280;SDS011;25048;49.590;11.026;2023-07-16T10:46:33;5.30;;;1.60;;
29280;SDS011;25048;49.590;11.026;2023-07-16T10:49:00;4.53;;;1.82;;
29280;SDS011;25048;49.590;11.026;2023-07-16T10:51:28;5.92;;;1.90;;
29280;SDS011;25048;49.590;11.026;2023-07-16T10:53:56;5.67;;;1.75;;
29280;SDS011;25048;49.590;11.026;2023-07-16T10:56:24;5.35;;;1.87;;
29280;SDS011;25048;49.590;11.026;2023-07-16T10:58:52;4.55;;;1.60;;
29280;SDS011;25048;49.590;11.026;2023-07-16T11:01:19;5.08;;;1.80;;
29280;SDS011;25048;49.590;11.026;2023-07-16T11:03:47;3.47;;;1.75;;
29280;SDS011;25048;49.590;11.026;2023-07-16T11:06:15;4.05;;;1.90;;
29280;SDS011;25048;49.590;11.026;2023-07-16T11:08:45;5.40;;;1.50;;
29280;SDS011;25048;49.590;11.026;2023-07-16T11:11:13;6.80;;;1.77;;
29280;SDS011;25048;49.590;11.026;2023-07-16T11:13:40;2.75;;;1.70;;
29280;SDS011;25048;49.590;11.026;2023-07-16T11:16:11;3.80;;;1.42;;
29280;SDS011;25048;49.590;11.026;2023-07-16T11:18:39;4.42;;;1.98;;
29280;SDS011;25048;49.590;11.026;2023-07-16T11:21:09;3.55;;;1.60;;
29280;SDS011;25048;49.590;11.026;2023-07-16T11:23:37;4.80;;;1.67;;
29280;SDS011;25048;49.590;11.026;2023-07-16T11:26:04;7.62;;;1.80;;
29280;SDS011;25048;49.590;11.026;2023-07-16T11:28:36;3.72;;;1.70;;
29280;SDS011;25048;49.590;11.026;2023-07-16T11:31:13;4.58;;;2.10;;
29280;SDS011;25048;49.590;11.026;2023-07-16T11:33:44;3.08;;;1.77;;
29280;SDS011;25048;49.590;11.026;2023-07-16T11:36:12;4.47;;;1.47;;
29280;SDS011;25048;49.590;11.026;2023-07-16T11:38:40;8.13;;;2.37;;
29280;SDS011;25048;49.590;11.026;2023-07-16T11:41:08;6.00;;;2.17;;
29280;SDS011;25048;49.590;11.026;2023-07-16T11:43:36;3.15;;;1.62;;
29280;SDS011;25048;49.590;11.026;2023-07-16T11:46:14;5.60;;;1.75;;
29280;SDS011;25048;49.590;11.026;2023-07-16T11:48:38;5.72;;;1.80;;
29280;SDS011;25048;49.590;11.026;2023-07-16T11:51:06;4.85;;;1.82;;
29280;SDS011;25048;49.590;11.026;2023-07-16T11:53:33;8.00;;;1.62;;
29280;SDS011;25048;49.590;11.026;2023-07-16T11:56:01;4.33;;;1.70;;
29280;SDS011;25048;49.590;11.026;2023-07-16T11:58:28;2.17;;;1.05;;
29280;SDS011;25048;49.590;11.026;2023-07-16T12:00:56;8.35;;;1.30;;
29280;SDS011;25048;49.590;11.026;2023-07-16T12:03:23;2.25;;;1.70;;
29280;SDS011;25048;49.590;11.026;2023-07-16T12:05:51;7.87;;;2.27;;
29280;SDS011;25048;49.590;11.026;2023-07-16T12:08:18;6.10;;;2.10;;
29280;SDS011;25048;49.590;11.026;2023-07-16T12:10:46;5.20;;;2.00;;
29280;SDS011;25048;49.590;11.026;2023-07-16T12:13:13;4.85;;;1.67;;
29280;SDS011;25048;49.590;11.026;2023-07-16T12:15:41;6.15;;;2.10;;
29280;SDS011;25048;49.590;11.026;2023-07-16T12:18:08;3.08;;;1.70;;
29280;SDS011;25048;49.590;11.026;2023-07-16T12:20:36;5.67;;;2.08;;
29280;SDS011;25048;49.590;11.026;2023-07-16T12:23:08;3.52;;;1.70;;
29280;SDS011;25048;49.590;11.026;2023-07-16T12:25:36;3.87;;;1.67;;
29280;SDS011;25048;49.590;11.026;2023-07-16T12:28:04;4.22;;;1.92;;
29280;SDS011;25048;49.590;11.026;2023-07-16T12:30:31;6.55;;;1.60;;
29280;SDS011;25048;49.590;11.026;2023-07-16T12:32:58;5.83;;;1.75;;
29280;SDS011;25048;49.590;11.026;2023-07-16T12:35:26;4.25;;;1.60;;
29280;SDS011;25048;49.590;11.026;2023-07-16T12:37:53;5.70;;;1.60;;
29280;SDS011;25048;49.590;11.026;2023-07-16T12:40:23;7.65;;;2.40;;
29280;SDS011;25048;49.590;11.026;2023-07-16T12:42:51;7.17;;;2.15;;
29280;SDS011;25048;49.590;11.026;2023-07-16T12:45:18;4.22;;;1.70;;
29280;SDS011;25048;49.590;11.026;2023-07-16T12:47:46;5.55;;;1.85;;
29280;SDS011;25048;49.590;11.026;2023-07-16T12:50:15;4.08;;;2.62;;
29280;SDS011;25048;49.590;11.026;2023-07-16T12:52:43;6.37;;;1.62;;
29280;SDS011;25048;49.590;11.026;2023-07-16T12:55:10;3.62;;;1.90;;
29280;SDS011;25048;49.590;11.026;2023-07-16T12:57:39;4.28;;;1.80;;
29280;SDS011;25048;49.590;11.026;2023-07-16T13:00:07;5.72;;;1.70;;
29280;SDS011;25048;49.590;11.026;2023-07-16T13:02:36;2.25;;;1.52;;
29280;SDS011;25048;49.590;11.026;2023-07-16T13:05:05;2.72;;;1.52;;
29280;SDS011;25048;49.590;11.026;2023-07-16T13:07:33;4.65;;;1.60;;
29280;SDS011;25048;49.590;11.026;2023-07-16T13:10:00;2.80;;;1.60;;
29280;SDS011;25048;49.590;11.026;2023-07-16T13:12:28;3.80;;;1.77;;
29280;SDS011;25048;49.590;11.026;2023-07-16T13:14:55;7.75;;;1.95;;
29280;SDS011;25048;49.590;11.026;2023-07-16T13:17:23;2.77;;;1.80;;
29280;SDS011;25048;49.590;11.026;2023-07-16T13:19:50;3.45;;;1.72;;
29280;SDS011;25048;49.590;11.026;2023-07-16T13:22:18;5.53;;;2.10;;
29280;SDS011;25048;49.590;11.026;2023-07-16T13:24:45;2.98;;;1.90;;
29280;SDS011;25048;49.590;11.026;2023-07-16T13:27:19;5.85;;;2.27;;
29280;SDS011;25048;49.590;11.026;2023-07-16T13:29:47;4.12;;;1.75;;
29280;SDS011;25048;49.590;11.026;2023-07-16T13:32:15;3.92;;;2.47;;
29280;SDS011;25048;49.590;11.026;2023-07-16T13:34:43;2.00;;;1.80;;
29280;SDS011;25048;49.590;11.026;2023-07-16T13:37:10;3.67;;;1.90;;
29280;SDS011;25048;49.590;11.026;2023-07-16T13:39:39;2.80;;;1.47;;
29280;SDS011;25048;49.590;11.026;2023-07-16T13:42:07;4.97;;;2.20;;
29280;SDS011;25048;49.590;11.026;2023-07-16T13:44:36;4.05;;;2.45;;
29280;SDS011;25048;49.590;11.026;2023-07-16T13:47:03;4.40;;;2.22;;
29280;SDS011;25048;49.590;11.026;2023-07-16T13:49:31;2.58;;;1.77;;
29280;SDS011;25048;49.590;11.026;2023-07-16T13:51:58;5.37;;;3.22;;
29280;SDS011;25048;49.590;11.026;2023-07-16T13:54:26;3.22;;;1.70;;
29280;SDS011;25048;49.590;11.026;2023-07-16T13:56:53;3.67;;;1.98;;
29280;SDS011;25048;49.590;11.026;2023-07-16T13:59:21;2.60;;;2.00;;
29280;SDS011;25048;49.590;11.026;2023-07-16T14:01:58;4.78;;;1.90;;
29280;SDS011;25048;49.590;11.026;2023-07-16T14:04:19;5.72;;;2.22;;
29280;SDS011;25048;49.590;11.026;2023-07-16T14:06:46;2.08;;;1.67;;
29280;SDS011;25048;49.590;11.026;2023-07-16T14:09:14;5.50;;;2.17;;
29280;SDS011;25048;49.590;11.026;2023-07-16T14:11:41;4.30;;;1.65;;
29280;SDS011;25048;49.590;11.026;2023-07-16T14:14:10;3.08;;;2.00;;
29280;SDS011;25048;49.590;11.026;2023-07-16T14:16:38;2.92;;;1.60;;
29280;SDS011;25048;49.590;11.026;2023-07-16T14:19:05;2.72;;;1.60;;
29280;SDS011;25048;49.590;11.026;2023-07-16T14:21:33;3.30;;;1.75;;
29280;SDS011;25048;49.590;11.026;2023-07-16T14:24:00;4.00;;;1.90;;
29280;SDS011;25048;49.590;11.026;2023-07-16T14:26:28;3.85;;;2.02;;
29280;SDS011;25048;49.590;11.026;2023-07-16T14:28:56;4.05;;;1.90;;
29280;SDS011;25048;49.590;11.026;2023-07-16T14:31:23;2.35;;;1.65;;
29280;SDS011;25048;49.590;11.026;2023-07-16T14:33:51;2.83;;;1.72;;
29280;SDS011;25048;49.590;11.026;2023-07-16T14:36:18;3.75;;;2.00;;
29280;SDS011;25048;49.590;11.026;2023-07-16T14:38:47;2.90;;;2.00;;
29280;SDS011;25048;49.590;11.026;2023-07-16T14:41:15;3.30;;;1.70;;
29280;SDS011;25048;49.590;11.026;2023-07-16T14:43:42;3.25;;;2.15;;
29280;SDS011;25048;49.590;11.026;2023-07-16T14:46:12;4.00;;;1.82;;